sensor_id;sensor_type;location;lat;lon;timestamp;pressure;altitude;pressure_sealevel;temperature;humidity
84483;BME280;74703;51.284;22.590;2024-02-21T00:04:10;99858.19;;;4.75;91.04
84483;BME280;74703;51.284;22.590;2024-02-21T00:09:10;99870.34;;;4.68;91.06
84483;BME280;74703;51.284;22.590;2024-02-21T00:14:11;99860.19;;;4.61;91.45
84483;BME280;74703;51.284;22.590;2024-02-21T00:19:12;99851.50;;;4.65;91.00
84483;BME280;74703;51.284;22.590;2024-02-21T00:24:12;99843.88;;;4.58;91.04
84483;BME280;74703;51.284;22.590;2024-02-21T00:29:13;99869.44;;;4.71;90.74
84483;BME280;74703;51.284;22.590;2024-02-21T00:34:13;99836.50;;;4.37;90.69
84483;BME280;74703;51.284;22.590;2024-02-21T00:39:14;99863.56;;;4.64;90.81
84483;BME280;74703;51.284;22.590;2024-02-21T00:44:19;99842.25;;;4.53;89.99
84483;BME280;74703;51.284;22.590;2024-02-21T00:49:20;99841.34;;;4.55;89.59
84483;BME280;74703;51.284;22.590;2024-02-21T00:54:20;99838.72;;;4.60;89.08
84483;BME280;74703;51.284;22.590;2024-02-21T00:59:21;99834.66;;;4.45;88.48
84483;BME280;74703;51.284;22.590;2024-02-21T01:04:22;99843.41;;;4.35;87.89
84483;BME280;74703;51.284;22.590;2024-02-21T01:09:24;99838.09;;;4.46;86.56
84483;BME280;74703;51.284;22.590;2024-02-21T01:14:25;99856.72;;;4.62;86.35
84483;BME280;74703;51.284;22.590;2024-02-21T01:19:25;99845.88;;;4.43;85.61
84483;BME280;74703;51.284;22.590;2024-02-21T01:24:27;99845.03;;;4.42;85.87
84483;BME280;74703;51.284;22.590;2024-02-21T01:29:27;99831.56;;;4.25;86.05
84483;BME280;74703;51.284;22.590;2024-02-21T01:34:28;99838.25;;;4.35;85.95
84483;BME280;74703;51.284;22.590;2024-02-21T01:39:28;99845.22;;;4.30;85.05
84483;BME280;74703;51.284;22.590;2024-02-21T01:44:29;99865.84;;;4.30;85.67
84483;BME280;74703;51.284;22.590;2024-02-21T01:49:30;99850.63;;;4.13;84.94
84483;BME280;74703;51.284;22.590;2024-02-21T01:54:31;99852.41;;;4.09;85.12
84483;BME280;74703;51.284;22.590;2024-02-21T01:59:32;99879.75;;;4.17;84.49
84483;BME280;74703;51.284;22.590;2024-02-21T02:04:34;99846.59;;;3.95;83.95
84483;BME280;74703;51.284;22.590;2024-02-21T02:09:35;99855.22;;;3.93;83.87
84483;BME280;74703;51.284;22.590;2024-02-21T02:14:35;99859.38;;;4.01;83.03
84483;BME280;74703;51.284;22.590;2024-02-21T02:19:36;99860.16;;;4.06;82.62
84483;BME280;74703;51.284;22.590;2024-02-21T02:24:37;99844.94;;;3.91;81.79
84483;BME280;74703;51.284;22.590;2024-02-21T02:29:37;99860.41;;;3.89;82.37
84483;BME280;74703;51.284;22.590;2024-02-21T02:34:38;99861.38;;;3.81;83.25
84483;BME280;74703;51.284;22.590;2024-02-21T02:39:38;99847.88;;;3.66;83.32
84483;BME280;74703;51.284;22.590;2024-02-21T02:44:39;99869.81;;;3.92;83.24
84483;BME280;74703;51.284;22.590;2024-02-21T02:49:39;99873.31;;;3.88;83.44
84483;BME280;74703;51.284;22.590;2024-02-21T02:54:40;99853.56;;;3.87;82.47
84483;BME280;74703;51.284;22.590;2024-02-21T02:59:40;99840.06;;;3.71;83.34
84483;BME280;74703;51.284;22.590;2024-02-21T03:04:41;99857.44;;;3.54;83.63
84483;BME280;74703;51.284;22.590;2024-02-21T03:09:42;99865.22;;;3.48;84.50
84483;BME280;74703;51.284;22.590;2024-02-21T03:14:43;99838.97;;;3.22;85.26
84483;BME280;74703;51.284;22.590;2024-02-21T03:19:43;99860.28;;;3.34;85.55
84483;BME280;74703;51.284;22.590;2024-02-21T03:24:44;99840.78;;;3.13;85.82
84483;BME280;74703;51.284;22.590;2024-02-21T03:29:45;99859.59;;;3.18;86.47
84483;BME280;74703;51.284;22.590;2024-02-21T03:34:45;99853.69;;;3.08;87.16
84483;BME280;74703;51.284;22.590;2024-02-21T03:39:46;99833.19;;;3.04;87.04
84483;BME280;74703;51.284;22.590;2024-02-21T03:44:47;99874.28;;;3.07;88.10
84483;BME280;74703;51.284;22.590;2024-02-21T03:49:49;99870.81;;;3.12;88.47
84483;BME280;74703;51.284;22.590;2024-02-21T03:54:50;99866.59;;;3.02;88.46
84483;BME280;74703;51.284;22.590;2024-02-21T03:59:51;99824.88;;;2.77;88.58
84483;BME280;74703;51.284;22.590;2024-02-21T04:04:52;99865.66;;;3.12;88.70
84483;BME280;74703;51.284;22.590;2024-02-21T04:09:53;99867.34;;;3.15;88.87
84483;BME280;74703;51.284;22.590;2024-02-21T04:14:54;99843.53;;;2.97;89.00
84483;BME280;74703;51.284;22.590;2024-02-21T04:20:02;99861.41;;;3.08;89.18
84483;BME280;74703;51.284;22.590;2024-02-21T04:25:05;99832.44;;;2.92;89.31
84483;BME280;74703;51.284;22.590;2024-02-21T04:30:07;99866.59;;;3.02;89.92
84483;BME280;74703;51.284;22.590;2024-02-21T04:35:08;99875.19;;;3.03;90.70
84483;BME280;74703;51.284;22.590;2024-02-21T04:40:09;99850.41;;;2.97;90.51
84483;BME280;74703;51.284;22.590;2024-02-21T04:45:10;99863.13;;;3.08;90.53
84483;BME280;74703;51.284;22.590;2024-02-21T04:50:10;99852.06;;;3.03;90.87
84483;BME280;74703;51.284;22.590;2024-02-21T04:55:11;99844.34;;;3.01;90.80
84483;BME280;74703;51.284;22.590;2024-02-21T05:00:12;99838.28;;;3.05;90.29
84483;BME280;74703;51.284;22.590;2024-02-21T05:05:13;99839.16;;;3.04;90.20
84483;BME280;74703;51.284;22.590;2024-02-21T05:10:15;99862.28;;;3.07;91.00
84483;BME280;74703;51.284;22.590;2024-02-21T05:15:17;99863.78;;;3.24;89.52
84483;BME280;74703;51.284;22.590;2024-02-21T05:20:18;99842.53;;;3.12;89.90
84483;BME280;74703;51.284;22.590;2024-02-21T05:25:18;99843.28;;;3.17;90.46
84483;BME280;74703;51.284;22.590;2024-02-21T05:30:19;99836.47;;;3.16;90.15
84483;BME280;74703;51.284;22.590;2024-02-21T05:35:25;99835.38;;;3.36;89.46
84483;BME280;74703;51.284;22.590;2024-02-21T05:40:26;99840.66;;;3.25;90.19
84483;BME280;74703;51.284;22.590;2024-02-21T05:45:27;99844.78;;;3.38;89.49
84483;BME280;74703;51.284;22.590;2024-02-21T05:50:28;99858.34;;;3.50;89.31
84483;BME280;74703;51.284;22.590;2024-02-21T05:55:29;99832.00;;;3.31;90.13
84483;BME280;74703;51.284;22.590;2024-02-21T06:00:29;99861.72;;;3.55;89.97
84483;BME280;74703;51.284;22.590;2024-02-21T06:05:30;99850.50;;;3.60;89.50
84483;BME280;74703;51.284;22.590;2024-02-21T06:10:32;99864.19;;;3.62;89.78
84483;BME280;74703;51.284;22.590;2024-02-21T06:15:33;99842.03;;;3.51;89.32
84483;BME280;74703;51.284;22.590;2024-02-21T06:20:33;99832.88;;;3.30;89.99
84483;BME280;74703;51.284;22.590;2024-02-21T06:25:36;99834.66;;;3.25;90.41
84483;BME280;74703;51.284;22.590;2024-02-21T06:30:38;99847.31;;;3.43;90.88
84483;BME280;74703;51.284;22.590;2024-02-21T06:35:39;99842.50;;;3.82;89.10
84483;BME280;74703;51.284;22.590;2024-02-21T06:40:42;99834.56;;;3.97;88.57
84483;BME280;74703;51.284;22.590;2024-02-21T06:45:49;99857.41;;;4.19;88.30
84483;BME280;74703;51.284;22.590;2024-02-21T06:50:52;99847.75;;;4.33;87.41
84483;BME280;74703;51.284;22.590;2024-02-21T06:55:53;99831.59;;;4.22;87.02
84483;BME280;74703;51.284;22.590;2024-02-21T07:00:53;99831.84;;;4.06;87.45
84483;BME280;74703;51.284;22.590;2024-02-21T07:05:54;99848.78;;;4.21;87.50
84483;BME280;74703;51.284;22.590;2024-02-21T07:10:54;99825.56;;;4.24;86.87
84483;BME280;74703;51.284;22.590;2024-02-21T07:15:55;99856.13;;;4.44;87.18
84483;BME280;74703;51.284;22.590;2024-02-21T07:20:55;99844.03;;;4.49;87.12
84483;BME280;74703;51.284;22.590;2024-02-21T07:25:56;99836.22;;;4.55;86.94
84483;BME280;74703;51.284;22.590;2024-02-21T07:30:59;99851.34;;;4.75;86.25
84483;BME280;74703;51.284;22.590;2024-02-21T07:36:01;99843.38;;;4.88;85.34
84483;BME280;74703;51.284;22.590;2024-02-21T07:41:05;99834.50;;;5.02;84.99
84483;BME280;74703;51.284;22.590;2024-02-21T07:46:06;99838.59;;;5.13;84.57
84483;BME280;74703;51.284;22.590;2024-02-21T07:51:07;99845.34;;;5.20;84.27
84483;BME280;74703;51.284;22.590;2024-02-21T07:56:07;99818.03;;;5.10;84.05
84483;BME280;74703;51.284;22.590;2024-02-21T08:01:10;99843.59;;;5.22;85.04
84483;BME280;74703;51.284;22.590;2024-02-21T08:06:12;99813.03;;;5.44;84.01
84483;BME280;74703;51.284;22.590;2024-02-21T08:11:15;99799.44;;;5.76;82.02
84483;BME280;74703;51.284;22.590;2024-02-21T08:16:18;99820.66;;;5.89;82.25
84483;BME280;74703;51.284;22.590;2024-02-21T08:21:19;99816.97;;;6.02;82.01
84483;BME280;74703;51.284;22.590;2024-02-21T08:26:19;99806.56;;;6.04;81.92
84483;BME280;74703;51.284;22.590;2024-02-21T08:31:20;99809.94;;;6.07;81.98
84483;BME280;74703;51.284;22.590;2024-02-21T08:36:20;99817.00;;;6.35;80.55
84483;BME280;74703;51.284;22.590;2024-02-21T08:41:22;99798.59;;;6.14;80.52
84483;BME280;74703;51.284;22.590;2024-02-21T08:46:24;99820.72;;;6.59;80.21
84483;BME280;74703;51.284;22.590;2024-02-21T08:51:24;99780.56;;;6.46;78.62
84483;BME280;74703;51.284;22.590;2024-02-21T08:56:26;99799.50;;;6.48;78.94
84483;BME280;74703;51.284;22.590;2024-02-21T09:01:29;99795.97;;;6.83;78.55
84483;BME280;74703;51.284;22.590;2024-02-21T09:06:30;99802.53;;;6.96;78.38
84483;BME280;74703;51.284;22.590;2024-02-21T09:11:34;99811.34;;;7.20;77.43
84483;BME280;74703;51.284;22.590;2024-02-21T09:16:34;99791.97;;;7.33;76.55
84483;BME280;74703;51.284;22.590;2024-02-21T09:21:35;99814.28;;;7.38;76.07
84483;BME280;74703;51.284;22.590;2024-02-21T09:26:35;99783.63;;;7.24;75.96
84483;BME280;74703;51.284;22.590;2024-02-21T09:31:40;99784.16;;;7.35;76.03
84483;BME280;74703;51.284;22.590;2024-02-21T09:36:41;99792.59;;;7.42;74.80
84483;BME280;74703;51.284;22.590;2024-02-21T09:41:53;99795.03;;;7.46;76.15
84483;BME280;74703;51.284;22.590;2024-02-21T09:47:04;99778.66;;;7.46;75.77
84483;BME280;74703;51.284;22.590;2024-02-21T09:52:07;99776.09;;;7.44;75.19
84483;BME280;74703;51.284;22.590;2024-02-21T09:57:08;99797.00;;;7.68;74.98
84483;BME280;74703;51.284;22.590;2024-02-21T10:02:08;99772.41;;;7.53;74.29
84483;BME280;74703;51.284;22.590;2024-02-21T10:07:12;99771.38;;;7.87;75.45
84483;BME280;74703;51.284;22.590;2024-02-21T10:12:13;99768.25;;;8.03;72.75
84483;BME280;74703;51.284;22.590;2024-02-21T10:17:17;99767.34;;;7.78;73.43
84483;BME280;74703;51.284;22.590;2024-02-21T10:22:19;99790.78;;;7.73;73.86
84483;BME280;74703;51.284;22.590;2024-02-21T10:27:23;99763.56;;;7.60;73.57
84483;BME280;74703;51.284;22.590;2024-02-21T10:32:24;99771.44;;;7.57;74.11
84483;BME280;74703;51.284;22.590;2024-02-21T10:37:26;99769.31;;;7.42;74.50
84483;BME280;74703;51.284;22.590;2024-02-21T10:42:29;99759.03;;;7.09;76.74
84483;BME280;74703;51.284;22.590;2024-02-21T10:47:35;99782.16;;;7.15;76.54
84483;BME280;74703;51.284;22.590;2024-02-21T10:52:57;99785.84;;;7.06;76.83
84483;BME280;74703;51.284;22.590;2024-02-21T10:58:05;99780.53;;;6.80;77.55
84483;BME280;74703;51.284;22.590;2024-02-21T11:03:06;99756.75;;;6.67;77.81
84483;BME280;74703;51.284;22.590;2024-02-21T11:08:07;99760.91;;;7.04;77.17
84483;BME280;74703;51.284;22.590;2024-02-21T11:13:08;99738.44;;;7.36;76.49
84483;BME280;74703;51.284;22.590;2024-02-21T11:18:09;99737.22;;;7.74;75.30
84483;BME280;74703;51.284;22.590;2024-02-21T11:23:25;99728.97;;;8.16;73.48
84483;BME280;74703;51.284;22.590;2024-02-21T11:28:28;99725.53;;;8.42;71.20
84483;BME280;74703;51.284;22.590;2024-02-21T11:33:28;99725.47;;;8.43;72.00
84483;BME280;74703;51.284;22.590;2024-02-21T11:38:29;99691.81;;;8.42;72.01
84483;BME280;74703;51.284;22.590;2024-02-21T11:43:29;99679.00;;;8.62;71.18
84483;BME280;74703;51.284;22.590;2024-02-21T11:48:31;99686.78;;;8.86;70.46
84483;BME280;74703;51.284;22.590;2024-02-21T11:53:32;99694.16;;;8.97;70.52
84483;BME280;74703;51.284;22.590;2024-02-21T11:58:33;99678.13;;;9.09;69.09
84483;BME280;74703;51.284;22.590;2024-02-21T12:03:35;99664.91;;;8.93;68.96
84483;BME280;74703;51.284;22.590;2024-02-21T12:08:43;99675.66;;;9.06;67.84
84483;BME280;74703;51.284;22.590;2024-02-21T12:13:44;99680.16;;;9.24;69.58
84483;BME280;74703;51.284;22.590;2024-02-21T12:18:45;99656.91;;;9.43;67.76
84483;BME280;74703;51.284;22.590;2024-02-21T12:23:45;99641.06;;;9.49;67.40
84483;BME280;74703;51.284;22.590;2024-02-21T12:28:47;99643.38;;;9.57;66.40
84483;BME280;74703;51.284;22.590;2024-02-21T12:33:47;99639.59;;;9.64;66.04
84483;BME280;74703;51.284;22.590;2024-02-21T12:38:48;99621.78;;;9.55;66.07
84483;BME280;74703;51.284;22.590;2024-02-21T12:43:49;99629.19;;;9.22;67.75
84483;BME280;74703;51.284;22.590;2024-02-21T12:48:50;99622.59;;;8.91;67.16
84483;BME280;74703;51.284;22.590;2024-02-21T12:53:51;99634.22;;;8.57;68.18
84483;BME280;74703;51.284;22.590;2024-02-21T12:58:51;99614.56;;;8.26;70.31
84483;BME280;74703;51.284;22.590;2024-02-21T13:03:52;99635.41;;;8.23;71.61
84483;BME280;74703;51.284;22.590;2024-02-21T13:08:54;99633.66;;;8.49;70.98
84483;BME280;74703;51.284;22.590;2024-02-21T13:13:54;99594.38;;;8.35;71.24
84483;BME280;74703;51.284;22.590;2024-02-21T13:18:55;99605.13;;;8.49;71.19
84483;BME280;74703;51.284;22.590;2024-02-21T13:23:55;99603.00;;;8.60;71.32
84483;BME280;74703;51.284;22.590;2024-02-21T13:28:57;99601.84;;;8.67;69.65
84483;BME280;74703;51.284;22.590;2024-02-21T13:33:57;99588.44;;;8.31;70.55
84483;BME280;74703;51.284;22.590;2024-02-21T13:38:58;99577.53;;;8.23;69.04
84483;BME280;74703;51.284;22.590;2024-02-21T13:43:58;99578.25;;;8.52;68.74
84483;BME280;74703;51.284;22.590;2024-02-21T13:49:04;99561.59;;;8.57;68.86
84483;BME280;74703;51.284;22.590;2024-02-21T13:54:08;99583.06;;;8.61;68.13
84483;BME280;74703;51.284;22.590;2024-02-21T13:59:16;99563.22;;;8.36;69.75
84483;BME280;74703;51.284;22.590;2024-02-21T14:04:17;99567.00;;;8.27;70.29
84483;BME280;74703;51.284;22.590;2024-02-21T14:09:19;99569.94;;;8.17;69.78
84483;BME280;74703;51.284;22.590;2024-02-21T14:14:21;99557.34;;;7.83;70.54
84483;BME280;74703;51.284;22.590;2024-02-21T14:19:24;99548.56;;;7.62;72.30
84483;BME280;74703;51.284;22.590;2024-02-21T14:24:24;99540.25;;;7.53;72.73
84483;BME280;74703;51.284;22.590;2024-02-21T14:29:25;99555.91;;;7.74;72.40
84483;BME280;74703;51.284;22.590;2024-02-21T14:34:25;99533.88;;;7.62;72.84
84483;BME280;74703;51.284;22.590;2024-02-21T14:39:26;99532.59;;;7.50;74.45
84483;BME280;74703;51.284;22.590;2024-02-21T14:44:27;99535.69;;;7.60;75.21
84483;BME280;74703;51.284;22.590;2024-02-21T14:49:27;99545.34;;;7.55;75.60
84483;BME280;74703;51.284;22.590;2024-02-21T14:54:28;99528.38;;;7.21;76.59
84483;BME280;74703;51.284;22.590;2024-02-21T14:59:29;99543.34;;;7.11;78.02
84483;BME280;74703;51.284;22.590;2024-02-21T15:04:30;99535.16;;;6.97;79.15
84483;BME280;74703;51.284;22.590;2024-02-21T15:09:31;99504.56;;;6.83;79.43
84483;BME280;74703;51.284;22.590;2024-02-21T15:14:32;99504.00;;;6.74;79.79
84483;BME280;74703;51.284;22.590;2024-02-21T15:19:35;99524.31;;;6.86;80.07
84483;BME280;74703;51.284;22.590;2024-02-21T15:24:41;99515.19;;;6.74;81.05
84483;BME280;74703;51.284;22.590;2024-02-21T15:29:42;99510.59;;;6.56;81.64
84483;BME280;74703;51.284;22.590;2024-02-21T15:34:43;99514.53;;;6.68;82.08
84483;BME280;74703;51.284;22.590;2024-02-21T15:39:43;99517.13;;;6.68;81.64
84483;BME280;74703;51.284;22.590;2024-02-21T15:44:44;99491.09;;;6.46;82.76
84483;BME280;74703;51.284;22.590;2024-02-21T15:49:44;99505.25;;;6.32;84.09
84483;BME280;74703;51.284;22.590;2024-02-21T15:54:45;99487.59;;;6.18;84.68
84483;BME280;74703;51.284;22.590;2024-02-21T15:59:46;99518.03;;;6.37;84.80
84483;BME280;74703;51.284;22.590;2024-02-21T16:04:50;99501.16;;;6.25;84.74
84483;BME280;74703;51.284;22.590;2024-02-21T16:09:51;99441.88;;;5.91;85.28
84483;BME280;74703;51.284;22.590;2024-02-21T16:14:52;99500.69;;;6.12;85.76
84483;BME280;74703;51.284;22.590;2024-02-21T16:19:53;99496.53;;;6.07;85.38
84483;BME280;74703;51.284;22.590;2024-02-21T16:24:53;99479.63;;;5.95;85.82
84483;BME280;74703;51.284;22.590;2024-02-21T16:29:54;99479.56;;;5.98;86.24
84483;BME280;74703;51.284;22.590;2024-02-21T16:34:55;99472.66;;;5.99;86.23
84483;BME280;74703;51.284;22.590;2024-02-21T16:39:55;99464.91;;;5.99;86.46
84483;BME280;74703;51.284;22.590;2024-02-21T16:44:57;99451.13;;;6.00;86.75
84483;BME280;74703;51.284;22.590;2024-02-21T16:49:59;99430.88;;;5.84;86.88
84483;BME280;74703;51.284;22.590;2024-02-21T16:55:00;99445.28;;;5.91;86.34
84483;BME280;74703;51.284;22.590;2024-02-21T17:00:01;99433.00;;;5.70;86.73
84483;BME280;74703;51.284;22.590;2024-02-21T17:05:06;99435.66;;;5.67;86.80
84483;BME280;74703;51.284;22.590;2024-02-21T17:10:07;99431.75;;;5.52;87.04
84483;BME280;74703;51.284;22.590;2024-02-21T17:15:08;99440.09;;;5.62;86.72
84483;BME280;74703;51.284;22.590;2024-02-21T17:20:09;99446.53;;;5.78;85.86
84483;BME280;74703;51.284;22.590;2024-02-21T17:25:10;99448.38;;;5.73;85.60
84483;BME280;74703;51.284;22.590;2024-02-21T17:30:11;99436.91;;;5.83;85.65
84483;BME280;74703;51.284;22.590;2024-02-21T17:35:12;99454.06;;;5.86;84.89
84483;BME280;74703;51.284;22.590;2024-02-21T17:40:13;99444.31;;;5.95;84.33
84483;BME280;74703;51.284;22.590;2024-02-21T17:45:14;99438.56;;;5.86;84.08
84483;BME280;74703;51.284;22.590;2024-02-21T17:50:15;99448.63;;;5.96;83.91
84483;BME280;74703;51.284;22.590;2024-02-21T17:55:16;99423.91;;;5.86;84.03
84483;BME280;74703;51.284;22.590;2024-02-21T18:00:17;99435.53;;;6.03;83.78
84483;BME280;74703;51.284;22.590;2024-02-21T18:05:18;99427.63;;;6.07;83.00
84483;BME280;74703;51.284;22.590;2024-02-21T18:10:18;99424.03;;;6.13;82.77
84483;BME280;74703;51.284;22.590;2024-02-21T18:15:19;99425.84;;;6.09;83.11
84483;BME280;74703;51.284;22.590;2024-02-21T18:20:20;99429.28;;;6.10;83.55
84483;BME280;74703;51.284;22.590;2024-02-21T18:25:20;99417.19;;;6.10;83.69
84483;BME280;74703;51.284;22.590;2024-02-21T18:30:24;99422.56;;;6.04;84.34
84483;BME280;74703;51.284;22.590;2024-02-21T18:35:24;99418.22;;;6.05;84.40
84483;BME280;74703;51.284;22.590;2024-02-21T18:40:26;99402.22;;;5.92;84.26
84483;BME280;74703;51.284;22.590;2024-02-21T18:45:28;99373.09;;;5.87;82.72
84483;BME280;74703;51.284;22.590;2024-02-21T18:50:29;99399.47;;;6.00;83.54
84483;BME280;74703;51.284;22.590;2024-02-21T18:55:30;99394.69;;;6.14;82.67
84483;BME280;74703;51.284;22.590;2024-02-21T19:00:30;99396.41;;;6.15;82.49
84483;BME280;74703;51.284;22.590;2024-02-21T19:05:31;99370.91;;;6.04;81.80
84483;BME280;74703;51.284;22.590;2024-02-21T19:10:31;99400.66;;;6.17;82.19
84483;BME280;74703;51.284;22.590;2024-02-21T19:15:32;99371.69;;;6.06;82.08
84483;BME280;74703;51.284;22.590;2024-02-21T19:20:35;99379.53;;;6.31;81.03
84483;BME280;74703;51.284;22.590;2024-02-21T19:25:36;99384.97;;;6.24;81.56
84483;BME280;74703;51.284;22.590;2024-02-21T19:30:39;99349.72;;;6.21;80.66
84483;BME280;74703;51.284;22.590;2024-02-21T19:35:40;99322.06;;;5.96;80.56
84483;BME280;74703;51.284;22.590;2024-02-21T19:40:43;99375.28;;;6.30;80.22
84483;BME280;74703;51.284;22.590;2024-02-21T19:45:44;99359.91;;;6.26;80.06
84483;BME280;74703;51.284;22.590;2024-02-21T19:50:48;99367.81;;;6.21;80.51
84483;BME280;74703;51.284;22.590;2024-02-21T19:55:48;99366.59;;;6.33;80.69
84483;BME280;74703;51.284;22.590;2024-02-21T20:00:49;99363.38;;;6.25;80.59
84483;BME280;74703;51.284;22.590;2024-02-21T20:05:49;99337.31;;;6.04;81.26
84483;BME280;74703;51.284;22.590;2024-02-21T20:10:50;99328.63;;;6.07;81.54
84483;BME280;74703;51.284;22.590;2024-02-21T20:15:51;99325.44;;;5.99;81.32
84483;BME280;74703;51.284;22.590;2024-02-21T20:20:51;99344.13;;;6.07;81.50
84483;BME280;74703;51.284;22.590;2024-02-21T20:25:53;99326.47;;;5.93;81.94
84483;BME280;74703;51.284;22.590;2024-02-21T20:30:55;99319.59;;;5.92;81.30
84483;BME280;74703;51.284;22.590;2024-02-21T20:35:55;99326.44;;;5.94;81.56
84483;BME280;74703;51.284;22.590;2024-02-21T20:40:56;99320.28;;;5.99;80.89
84483;BME280;74703;51.284;22.590;2024-02-21T20:45:57;99290.56;;;5.84;81.03
84483;BME280;74703;51.284;22.590;2024-02-21T20:50:57;99322.00;;;5.98;81.04
84483;BME280;74703;51.284;22.590;2024-02-21T20:55:58;99307.53;;;5.92;81.16
84483;BME280;74703;51.284;22.590;2024-02-21T21:01:00;99307.44;;;5.95;81.29
84483;BME280;74703;51.284;22.590;2024-02-21T21:06:01;99317.84;;;5.94;81.63
84483;BME280;74703;51.284;22.590;2024-02-21T21:11:01;99318.69;;;5.94;81.45
84483;BME280;74703;51.284;22.590;2024-02-21T21:16:02;99265.19;;;5.70;80.96
84483;BME280;74703;51.284;22.590;2024-02-21T21:21:03;99314.38;;;5.95;81.33
84483;BME280;74703;51.284;22.590;2024-02-21T21:26:04;99294.03;;;5.84;81.62
84483;BME280;74703;51.284;22.590;2024-02-21T21:31:04;99303.09;;;5.97;81.40
84483;BME280;74703;51.284;22.590;2024-02-21T21:36:05;99296.59;;;5.84;81.91
84483;BME280;74703;51.284;22.590;2024-02-21T21:41:08;99290.44;;;5.88;81.44
84483;BME280;74703;51.284;22.590;2024-02-21T21:46:12;99288.59;;;5.92;81.39
84483;BME280;74703;51.284;22.590;2024-02-21T21:51:14;99282.88;;;5.82;81.53
84483;BME280;74703;51.284;22.590;2024-02-21T21:56:14;99273.66;;;5.75;82.10
84483;BME280;74703;51.284;22.590;2024-02-21T22:01:15;99280.41;;;5.79;82.31
84483;BME280;74703;51.284;22.590;2024-02-21T22:06:16;99268.50;;;5.75;81.83
84483;BME280;74703;51.284;22.590;2024-02-21T22:11:16;99278.75;;;5.77;82.14
84483;BME280;74703;51.284;22.590;2024-02-21T22:16:18;99268.34;;;5.80;81.87
84483;BME280;74703;51.284;22.590;2024-02-21T22:21:19;99256.72;;;5.66;82.06
84483;BME280;74703;51.284;22.590;2024-02-21T22:26:23;99276.03;;;5.81;82.06
84483;BME280;74703;51.284;22.590;2024-02-21T22:31:26;99227.63;;;5.60;82.36
84483;BME280;74703;51.284;22.590;2024-02-21T22:36:27;99254.13;;;5.66;82.21
84483;BME280;74703;51.284;22.590;2024-02-21T22:41:28;99249.81;;;5.67;82.57
84483;BME280;74703;51.284;22.590;2024-02-21T22:46:31;99216.34;;;5.64;82.39
84483;BME280;74703;51.284;22.590;2024-02-21T22:51:32;99236.44;;;5.81;82.07
84483;BME280;74703;51.284;22.590;2024-02-21T22:56:32;99214.56;;;5.66;82.83
84483;BME280;74703;51.284;22.590;2024-02-21T23:01:34;99212.75;;;5.68;82.56
84483;BME280;74703;51.284;22.590;2024-02-21T23:06:37;99215.31;;;5.69;82.63
84483;BME280;74703;51.284;22.590;2024-02-21T23:11:38;99194.69;;;5.68;82.65
84483;BME280;74703;51.284;22.590;2024-02-21T23:16:41;99203.06;;;5.74;82.30
84483;BME280;74703;51.284;22.590;2024-02-21T23:21:44;99197.91;;;5.74;82.67
84483;BME280;74703;51.284;22.590;2024-02-21T23:26:45;99189.53;;;5.68;82.50
84483;BME280;74703;51.284;22.590;2024-02-21T23:31:48;99163.09;;;5.60;82.50
84483;BME280;74703;51.284;22.590;2024-02-21T23:36:50;99157.22;;;5.56;82.32
84483;BME280;74703;51.284;22.590;2024-02-21T23:41:52;99141.59;;;5.61;81.70
84483;BME280;74703;51.284;22.590;2024-02-21T23:46:53;99162.84;;;5.69;82.63
84483;BME280;74703;51.284;22.590;2024-02-21T23:51:53;99150.03;;;5.66;82.10
84483;BME280;74703;51.284;22.590;2024-02-21T23:56:55;99120.34;;;5.53;82.41
